createdAt,value
2018-06-24T00:01:27.005Z,92.50
2018-06-24T00:03:55.229Z,93.10
2018-06-24T00:06:23.465Z,93.20
2018-06-24T00:08:51.653Z,92.70
2018-06-24T00:11:19.967Z,92.50
2018-06-24T00:13:48.185Z,93.20
2018-06-24T00:16:16.686Z,92.90
2018-06-24T00:18:44.928Z,93.70
2018-06-24T00:21:13.121Z,94.20
2018-06-24T00:23:41.369Z,95.50
2018-06-24T00:26:09.598Z,95.90
2018-06-24T00:28:37.820Z,96.00
2018-06-24T00:31:06.027Z,96.20
2018-06-24T00:33:34.242Z,96.20
2018-06-24T00:36:02.429Z,96.60
2018-06-24T00:38:30.628Z,97.00
2018-06-24T00:40:58.863Z,98.40
2018-06-24T00:45:55.046Z,98.30
2018-06-24T00:48:23.266Z,98.30
2018-06-24T00:50:51.489Z,98.30
2018-06-24T00:53:19.719Z,99.50
2018-06-24T00:55:47.989Z,99.80
2018-06-24T00:58:16.202Z,99.90
2018-06-24T01:00:44.463Z,99.90
2018-06-24T01:03:12.689Z,99.90
2018-06-24T01:05:40.928Z,99.90
2018-06-24T01:08:09.167Z,99.90
2018-06-24T01:10:37.379Z,99.90
2018-06-24T01:13:05.678Z,99.90
2018-06-24T01:15:33.918Z,99.90
2018-06-24T01:18:02.173Z,99.90
2018-06-24T01:20:30.431Z,99.90
2018-06-24T01:22:58.625Z,99.90
2018-06-24T01:25:26.856Z,99.90
2018-06-24T01:27:55.074Z,99.90
2018-06-24T01:30:23.311Z,99.90
2018-06-24T01:32:51.498Z,99.90
2018-06-24T01:35:19.755Z,99.90
2018-06-24T01:37:47.954Z,99.90
2018-06-24T01:40:16.225Z,99.90
2018-06-24T01:42:44.694Z,99.90
2018-06-24T01:45:12.910Z,99.90
2018-06-24T01:47:41.110Z,99.90
2018-06-24T01:50:09.346Z,99.90
2018-06-24T01:52:37.562Z,99.90
2018-06-24T01:55:05.785Z,99.90
2018-06-24T01:57:33.985Z,99.90
2018-06-24T02:02:30.174Z,99.90
2018-06-24T02:04:58.579Z,99.90
2018-06-24T02:07:26.787Z,99.90
2018-06-24T02:09:55.190Z,99.90
2018-06-24T02:12:23.394Z,99.90
2018-06-24T02:14:51.641Z,99.90
2018-06-24T02:17:19.832Z,99.90
2018-06-24T02:19:48.054Z,99.90
2018-06-24T02:22:16.296Z,99.90
2018-06-24T02:24:44.531Z,99.90
2018-06-24T02:27:12.750Z,99.90
2018-06-24T02:29:40.966Z,99.90
2018-06-24T02:32:09.153Z,99.90
2018-06-24T02:34:37.362Z,99.90
2018-06-24T02:37:05.582Z,99.90
2018-06-24T02:39:33.772Z,99.90
2018-06-24T02:42:01.999Z,99.90
2018-06-24T02:44:30.233Z,99.90
2018-06-24T02:46:58.446Z,99.90
2018-06-24T02:49:26.925Z,99.90
2018-06-24T02:51:55.160Z,99.90
2018-06-24T02:54:23.381Z,99.90
2018-06-24T02:56:51.578Z,99.90
2018-06-24T02:59:19.805Z,99.90
2018-06-24T03:01:48.010Z,99.90
2018-06-24T03:04:16.228Z,99.90
2018-06-24T03:09:12.675Z,99.90
2018-06-24T03:14:09.070Z,99.90
2018-06-24T03:16:37.714Z,99.90
2018-06-24T03:19:05.934Z,99.90
2018-06-24T03:21:34.234Z,99.90
2018-06-24T03:24:02.441Z,99.90
2018-06-24T03:26:30.653Z,99.90
2018-06-24T03:28:58.857Z,99.90
2018-06-24T03:31:27.115Z,99.90
2018-06-24T03:33:55.602Z,99.90
2018-06-24T03:36:23.834Z,99.90
2018-06-24T03:38:52.050Z,99.90
2018-06-24T03:41:20.269Z,99.90
2018-06-24T03:43:48.517Z,99.90
2018-06-24T03:46:16.765Z,99.90
2018-06-24T03:48:45.255Z,99.90
2018-06-24T03:51:13.461Z,99.90
2018-06-24T03:53:41.674Z,99.90
2018-06-24T03:56:09.882Z,99.90
2018-06-24T03:58:38.085Z,99.90
2018-06-24T04:01:06.350Z,99.90
2018-06-24T04:03:34.582Z,99.90
2018-06-24T04:06:02.782Z,99.90
2018-06-24T04:08:31.054Z,99.90
2018-06-24T04:10:59.252Z,99.90
2018-06-24T04:13:27.454Z,99.90
2018-06-24T04:18:33.928Z,99.90
2018-06-24T04:21:02.141Z,99.90
2018-06-24T04:23:30.384Z,99.90
2018-06-24T04:25:58.640Z,99.90
2018-06-24T04:28:27.048Z,99.90
2018-06-24T04:30:55.262Z,99.90
2018-06-24T04:33:23.482Z,99.90
2018-06-24T04:35:51.670Z,99.90
2018-06-24T04:38:19.922Z,99.90
2018-06-24T04:40:48.337Z,99.90
2018-06-24T04:43:16.555Z,99.90
2018-06-24T04:45:44.762Z,99.90
2018-06-24T04:48:12.999Z,99.90
2018-06-24T04:50:41.293Z,99.90
2018-06-24T04:53:09.569Z,99.90
2018-06-24T04:55:37.790Z,99.90
2018-06-24T04:58:06.465Z,99.90
2018-06-24T05:00:34.694Z,99.90
2018-06-24T05:03:03.149Z,99.90
2018-06-24T05:05:31.434Z,99.90
2018-06-24T05:07:59.682Z,99.90
2018-06-24T05:10:28.178Z,99.90
2018-06-24T05:12:56.410Z,99.90
2018-06-24T05:15:24.803Z,99.90
2018-06-24T05:17:53.025Z,99.90
2018-06-24T05:20:21.289Z,99.90
2018-06-24T05:22:49.494Z,99.90
2018-06-24T05:25:17.706Z,99.90
2018-06-24T05:27:45.902Z,99.90
2018-06-24T05:30:14.110Z,99.90
2018-06-24T05:32:42.359Z,99.90
2018-06-24T05:35:10.584Z,99.90
2018-06-24T05:37:38.829Z,99.90
2018-06-24T05:40:07.064Z,99.90
2018-06-24T05:42:35.371Z,99.90
2018-06-24T05:45:03.714Z,98.50
2018-06-24T05:47:31.989Z,96.70
2018-06-24T05:50:00.163Z,96.80
2018-06-24T05:52:28.392Z,97.10
2018-06-24T05:54:56.613Z,97.10
2018-06-24T05:57:24.839Z,98.30
2018-06-24T05:59:53.041Z,98.60
2018-06-24T06:02:21.258Z,96.90
2018-06-24T06:04:49.477Z,93.30
2018-06-24T06:07:17.865Z,93.20
2018-06-24T06:09:46.121Z,94.40
2018-06-24T06:12:14.339Z,94.70
2018-06-24T06:14:42.755Z,94.10
2018-06-24T06:17:10.985Z,93.60
2018-06-24T06:19:39.219Z,92.70
2018-06-24T06:22:07.443Z,92.80
2018-06-24T06:24:35.646Z,92.20
2018-06-24T06:27:03.877Z,91.50
2018-06-24T06:29:32.358Z,91.10
2018-06-24T06:32:00.564Z,90.10
2018-06-24T06:34:28.882Z,89.40
2018-06-24T06:36:57.129Z,87.90
2018-06-24T06:39:25.309Z,85.00
2018-06-24T06:41:53.530Z,87.30
2018-06-24T06:44:21.754Z,84.90
2018-06-24T06:46:49.958Z,83.60
2018-06-24T06:49:18.176Z,83.10
2018-06-24T06:51:46.556Z,83.70
2018-06-24T06:54:14.741Z,81.40
2018-06-24T06:56:42.952Z,81.90
2018-06-24T06:59:11.178Z,81.20
2018-06-24T07:01:39.377Z,79.90
2018-06-24T07:06:35.610Z,77.00
2018-06-24T07:09:05.613Z,75.70
2018-06-24T07:11:33.804Z,75.90
2018-06-24T07:16:30.034Z,70.20
2018-06-24T07:18:58.290Z,70.80
2018-06-24T07:21:26.492Z,71.60
2018-06-24T07:23:54.687Z,70.70
2018-06-24T07:26:22.894Z,70.20
2018-06-24T07:28:51.079Z,68.80
2018-06-24T07:31:19.338Z,66.60
2018-06-24T07:33:47.764Z,67.40
2018-06-24T07:38:43.967Z,66.10
2018-06-24T07:41:12.182Z,64.80
2018-06-24T07:43:40.377Z,65.70
2018-06-24T07:46:08.588Z,64.60
2018-06-24T07:48:36.806Z,64.50
2018-06-24T07:51:05.014Z,66.30
2018-06-24T07:53:33.223Z,65.70
2018-06-24T07:56:01.433Z,65.40
2018-06-24T07:58:29.650Z,65.00
2018-06-24T08:00:57.886Z,65.30
2018-06-24T08:03:26.184Z,65.80
2018-06-24T08:05:54.441Z,66.20
2018-06-24T08:08:22.668Z,66.30
2018-06-24T08:10:50.889Z,67.50
2018-06-24T08:13:19.074Z,65.70
2018-06-24T08:15:47.291Z,66.60
2018-06-24T08:18:15.509Z,64.00
2018-06-24T08:20:43.884Z,63.60
2018-06-24T08:23:12.086Z,61.80
2018-06-24T08:25:40.310Z,62.00
2018-06-24T08:28:08.503Z,62.20
2018-06-24T08:30:36.751Z,62.50
2018-06-24T08:33:05.373Z,61.40
2018-06-24T08:35:33.605Z,60.60
2018-06-24T08:38:02.207Z,59.30
2018-06-24T08:40:30.402Z,59.10
2018-06-24T08:42:58.686Z,59.30
2018-06-24T08:45:26.921Z,59.90
2018-06-24T08:47:55.225Z,60.90
2018-06-24T08:50:23.429Z,59.20
2018-06-24T08:55:19.637Z,59.20
2018-06-24T08:57:47.887Z,59.90
2018-06-24T09:00:16.130Z,60.00
2018-06-24T09:02:44.376Z,59.90
2018-06-24T09:05:12.621Z,57.70
2018-06-24T09:07:40.879Z,56.80
2018-06-24T09:10:09.438Z,55.20
2018-06-24T09:12:37.699Z,53.70
2018-06-24T09:15:05.909Z,51.60
2018-06-24T09:17:34.132Z,50.80
2018-06-24T09:20:02.824Z,50.60
2018-06-24T09:22:31.067Z,48.90
2018-06-24T09:24:59.281Z,49.00
2018-06-24T09:27:27.482Z,49.00
2018-06-24T09:29:55.709Z,49.60
2018-06-24T09:32:24.003Z,49.10
2018-06-24T09:34:52.221Z,49.00
2018-06-24T09:37:20.481Z,49.20
2018-06-24T09:39:48.723Z,47.10
2018-06-24T09:42:16.950Z,46.90
2018-06-24T09:44:45.223Z,46.30
2018-06-24T09:47:13.809Z,45.70
2018-06-24T09:49:42.032Z,46.10
2018-06-24T09:52:10.247Z,45.80
2018-06-24T09:54:38.453Z,45.70
2018-06-24T09:57:06.662Z,45.60
2018-06-24T09:59:34.925Z,45.70
2018-06-24T10:02:03.177Z,45.20
2018-06-24T10:04:31.401Z,45.80
2018-06-24T10:06:59.634Z,45.60
2018-06-24T10:09:27.937Z,44.80
2018-06-24T10:11:56.134Z,46.10
2018-06-24T10:14:24.381Z,45.50
2018-06-24T10:16:52.719Z,45.80
2018-06-24T10:21:48.934Z,45.50
2018-06-24T10:24:17.157Z,44.70
2018-06-24T10:26:45.366Z,44.10
2018-06-24T10:29:13.589Z,44.70
2018-06-24T10:31:41.843Z,44.30
2018-06-24T10:34:10.093Z,44.60
2018-06-24T10:36:38.304Z,45.60
2018-06-24T10:39:08.800Z,45.00
2018-06-24T10:41:37.056Z,42.70
2018-06-24T10:44:05.309Z,41.40
2018-06-24T10:46:33.522Z,40.80
2018-06-24T10:49:01.721Z,41.00
2018-06-24T10:51:29.951Z,40.90
2018-06-24T10:53:58.449Z,42.10
2018-06-24T10:56:26.753Z,40.30
2018-06-24T11:01:22.897Z,39.30
2018-06-24T11:06:19.098Z,37.90
2018-06-24T11:08:47.325Z,38.60
2018-06-24T11:11:15.569Z,39.20
2018-06-24T11:13:43.841Z,39.30
2018-06-24T11:16:12.327Z,39.40
2018-06-24T11:18:40.609Z,38.90
2018-06-24T11:21:08.801Z,38.00
2018-06-24T11:23:37.056Z,34.90
2018-06-24T11:26:05.253Z,33.60
2018-06-24T11:28:33.512Z,33.80
2018-06-24T11:31:01.749Z,31.90
2018-06-24T11:33:29.925Z,31.90
2018-06-24T11:35:58.137Z,32.10
2018-06-24T11:38:26.529Z,30.90
2018-06-24T11:40:54.753Z,30.60
2018-06-24T11:43:23.018Z,31.20
2018-06-24T11:45:51.228Z,31.80
2018-06-24T11:48:19.471Z,33.60
2018-06-24T11:50:47.676Z,33.70
2018-06-24T11:53:15.894Z,34.20
2018-06-24T11:55:44.158Z,35.20
2018-06-24T12:00:40.371Z,35.60
2018-06-24T12:03:08.594Z,36.60
2018-06-24T12:05:36.816Z,36.70
2018-06-24T12:08:05.217Z,37.60
2018-06-24T12:10:33.593Z,35.70
2018-06-24T12:13:02.142Z,35.40
2018-06-24T12:15:30.365Z,34.50
2018-06-24T12:17:58.634Z,33.60
2018-06-24T12:20:26.830Z,32.30
2018-06-24T12:22:55.193Z,30.50
2018-06-24T12:25:23.407Z,30.00
2018-06-24T12:27:51.622Z,28.60
2018-06-24T12:30:19.830Z,26.30
2018-06-24T12:32:48.218Z,25.10
2018-06-24T12:35:16.451Z,25.20
2018-06-24T12:37:44.633Z,25.60
2018-06-24T12:40:12.870Z,24.00
2018-06-24T12:42:41.118Z,23.20
2018-06-24T12:45:09.365Z,22.30
2018-06-24T12:47:37.761Z,22.40
2018-06-24T12:50:05.971Z,23.10
2018-06-24T12:52:34.183Z,23.80
2018-06-24T12:55:02.442Z,25.30
2018-06-24T12:57:30.634Z,26.00
2018-06-24T12:59:59.224Z,26.60
2018-06-24T13:02:27.080Z,26.90
2018-06-24T13:04:55.271Z,27.30
2018-06-24T13:07:23.447Z,27.90
2018-06-24T13:09:51.638Z,28.30
2018-06-24T13:12:19.833Z,28.50
2018-06-24T13:14:48.049Z,29.10
2018-06-24T13:17:16.254Z,28.90
2018-06-24T13:19:44.425Z,28.80
2018-06-24T13:24:40.569Z,28.70
2018-06-24T13:29:36.774Z,29.60
2018-06-24T13:32:05.036Z,30.50
2018-06-24T13:34:33.261Z,29.80
2018-06-24T13:37:01.460Z,30.20
2018-06-24T13:39:29.669Z,30.90
2018-06-24T13:41:57.937Z,31.10
2018-06-24T13:44:26.153Z,31.20
2018-06-24T13:46:54.469Z,31.30
2018-06-24T13:49:22.689Z,31.30
2018-06-24T13:51:51.055Z,30.90
2018-06-24T13:54:19.270Z,30.70
2018-06-24T13:59:15.466Z,31.80
2018-06-24T14:01:43.667Z,31.00
2018-06-24T14:04:11.869Z,30.30
2018-06-24T14:09:10.483Z,27.20
2018-06-24T14:11:38.681Z,24.70
2018-06-24T14:14:07.109Z,23.10
2018-06-24T14:16:35.269Z,23.10
2018-06-24T14:19:03.517Z,24.00
2018-06-24T14:21:31.938Z,24.60
2018-06-24T14:24:00.255Z,25.20
2018-06-24T14:26:28.522Z,25.80
2018-06-24T14:31:24.695Z,26.00
2018-06-24T14:33:52.936Z,24.80
2018-06-24T14:36:21.244Z,25.40
2018-06-24T14:38:49.497Z,24.90
2018-06-24T14:41:17.775Z,23.80
2018-06-24T14:43:45.998Z,22.00
2018-06-24T14:46:14.194Z,21.80
2018-06-24T14:48:42.421Z,20.40
2018-06-24T14:51:10.651Z,20.20
2018-06-24T14:53:38.865Z,20.50
2018-06-24T14:56:07.115Z,21.00
2018-06-24T14:58:35.357Z,22.00
2018-06-24T15:01:03.573Z,23.00
2018-06-24T15:03:31.826Z,22.50
2018-06-24T15:06:00.259Z,21.50
2018-06-24T15:08:28.558Z,21.90
2018-06-24T15:10:56.753Z,22.80
2018-06-24T15:13:24.970Z,23.70
2018-06-24T15:15:53.166Z,24.60
2018-06-24T15:18:21.424Z,25.20
2018-06-24T15:20:49.638Z,25.20
2018-06-24T15:23:17.839Z,26.20
2018-06-24T15:28:14.045Z,27.70
2018-06-24T15:30:42.258Z,27.90
2018-06-24T15:33:10.452Z,28.80
2018-06-24T15:35:38.710Z,28.70
2018-06-24T15:38:06.957Z,29.10
2018-06-24T15:40:35.330Z,29.70
2018-06-24T15:43:03.732Z,30.00
2018-06-24T15:45:31.970Z,31.60
2018-06-24T15:48:00.162Z,31.70
2018-06-24T15:50:28.414Z,31.00
2018-06-24T15:52:56.704Z,28.50
2018-06-24T15:55:24.914Z,26.90
2018-06-24T16:00:21.117Z,27.20
2018-06-24T16:02:49.370Z,27.50
2018-06-24T16:05:17.882Z,27.50
2018-06-24T16:07:46.097Z,26.40
2018-06-24T16:10:14.314Z,24.80
2018-06-24T16:12:42.506Z,23.20
2018-06-24T16:15:10.779Z,23.30
2018-06-24T16:17:38.980Z,24.70
2018-06-24T16:20:07.193Z,25.80
2018-06-24T16:22:35.493Z,27.20
2018-06-24T16:25:03.689Z,28.50
2018-06-24T16:27:31.887Z,29.30
2018-06-24T16:30:00.113Z,30.00
2018-06-24T16:32:28.322Z,30.20
2018-06-24T16:34:56.558Z,30.30
2018-06-24T16:37:24.788Z,30.60
2018-06-24T16:39:53.035Z,31.20
2018-06-24T16:42:21.283Z,31.40
2018-06-24T16:44:49.542Z,31.50
2018-06-24T16:47:17.761Z,31.90
2018-06-24T16:49:46.066Z,32.40
2018-06-24T16:52:14.230Z,33.00
2018-06-24T16:54:42.410Z,29.50
2018-06-24T16:57:10.635Z,26.50
2018-06-24T16:59:38.841Z,25.30
2018-06-24T17:02:07.148Z,25.50
2018-06-24T17:04:35.327Z,26.60
2018-06-24T17:07:03.598Z,27.70
2018-06-24T17:11:59.785Z,30.70
2018-06-24T17:14:28.042Z,32.10
2018-06-24T17:16:56.282Z,33.40
2018-06-24T17:19:24.465Z,34.80
2018-06-24T17:21:52.658Z,35.90
2018-06-24T17:24:20.916Z,36.90
2018-06-24T17:26:49.152Z,37.70
2018-06-24T17:29:17.408Z,38.40
2018-06-24T17:31:45.633Z,38.80
2018-06-24T17:34:13.980Z,39.90
2018-06-24T17:36:42.205Z,40.00
2018-06-24T17:39:11.688Z,40.50
2018-06-24T17:41:40.009Z,41.20
2018-06-24T17:44:08.238Z,41.70
2018-06-24T17:46:36.457Z,42.10
2018-06-24T17:49:04.680Z,42.80
2018-06-24T17:51:32.944Z,43.40
2018-06-24T17:54:01.178Z,43.50
2018-06-24T17:56:29.378Z,44.20
2018-06-24T17:58:57.646Z,43.80
2018-06-24T18:01:25.838Z,43.60
2018-06-24T18:03:54.047Z,43.70
2018-06-24T18:06:22.264Z,43.80
2018-06-24T18:08:50.464Z,44.50
2018-06-24T18:11:18.677Z,44.20
2018-06-24T18:16:14.965Z,44.90
2018-06-24T18:18:43.159Z,45.40
2018-06-24T18:21:11.357Z,45.90
2018-06-24T18:23:39.550Z,46.30
2018-06-24T18:26:07.752Z,46.80
2018-06-24T18:28:36.013Z,47.10
2018-06-24T18:31:05.057Z,47.20
2018-06-24T18:33:33.257Z,47.10
2018-06-24T18:36:01.555Z,47.30
2018-06-24T18:40:57.782Z,47.80
2018-06-24T18:43:26.007Z,47.70
2018-06-24T18:45:54.250Z,47.90
2018-06-24T18:48:22.517Z,48.30
2018-06-24T18:53:18.662Z,48.50
2018-06-24T18:58:14.817Z,50.00
2018-06-24T19:00:43.018Z,50.10
2018-06-24T19:03:11.402Z,50.10
2018-06-24T19:05:39.634Z,50.40
2018-06-24T19:10:35.782Z,50.60
2018-06-24T19:15:31.941Z,50.60
2018-06-24T19:18:00.150Z,50.90
2018-06-24T19:20:28.357Z,51.20
2018-06-24T19:22:56.555Z,52.00
2018-06-24T19:25:24.974Z,51.70
2018-06-24T19:27:53.091Z,51.60
2018-06-24T19:30:21.281Z,52.00
2018-06-24T19:32:49.820Z,52.20
2018-06-24T19:35:17.797Z,52.20
2018-06-24T19:37:46.038Z,52.30
2018-06-24T19:40:14.230Z,52.90
2018-06-24T19:42:42.456Z,52.60
2018-06-24T19:45:10.678Z,52.30
2018-06-24T19:47:39.058Z,52.40
2018-06-24T19:50:07.254Z,52.60
2018-06-24T19:52:35.442Z,53.20
2018-06-24T19:55:03.633Z,53.20
2018-06-24T19:57:31.818Z,53.20
2018-06-24T20:00:00.048Z,53.00
2018-06-24T20:02:28.289Z,52.90
2018-06-24T20:04:56.501Z,52.90
2018-06-24T20:07:24.721Z,53.10
2018-06-24T20:09:52.937Z,53.40
2018-06-24T20:12:21.150Z,53.70
2018-06-24T20:14:49.462Z,54.10
2018-06-24T20:17:17.666Z,54.20
2018-06-24T20:19:45.881Z,54.30
2018-06-24T20:22:14.091Z,54.60
2018-06-24T20:24:42.323Z,55.00
2018-06-24T20:27:10.521Z,55.60
2018-06-24T20:29:38.721Z,55.40
2018-06-24T20:32:06.917Z,55.80
2018-06-24T20:34:35.126Z,56.50
2018-06-24T20:39:31.293Z,57.20
2018-06-24T20:41:59.517Z,56.00
2018-06-24T20:44:27.738Z,56.30
2018-06-24T20:46:55.953Z,56.90
2018-06-24T20:49:24.186Z,57.30
2018-06-24T20:54:20.334Z,59.30
2018-06-24T20:56:48.593Z,59.80
2018-06-24T20:59:16.793Z,60.30
2018-06-24T21:01:45.017Z,60.50
2018-06-24T21:04:13.213Z,60.30
2018-06-24T21:09:10.680Z,59.40
2018-06-24T21:11:39.073Z,60.30
2018-06-24T21:14:07.280Z,60.40
2018-06-24T21:16:35.506Z,61.70
2018-06-24T21:19:03.769Z,61.20
2018-06-24T21:21:32.011Z,61.70
2018-06-24T21:24:00.234Z,61.70
2018-06-24T21:26:28.725Z,61.90
2018-06-24T21:28:56.998Z,62.50
2018-06-24T21:31:25.171Z,62.70
2018-06-24T21:33:53.421Z,62.60
2018-06-24T21:36:21.611Z,62.40
2018-06-24T21:38:49.972Z,62.40
2018-06-24T21:41:18.176Z,62.60
2018-06-24T21:43:46.373Z,62.60
2018-06-24T21:46:14.545Z,62.50
2018-06-24T21:48:42.770Z,62.70
2018-06-24T21:51:10.973Z,63.40
2018-06-24T21:53:39.481Z,63.80
2018-06-24T21:56:07.750Z,63.80
2018-06-24T21:58:35.981Z,64.50
2018-06-24T22:01:04.511Z,64.40
2018-06-24T22:03:32.724Z,64.70
2018-06-24T22:06:00.924Z,64.20
2018-06-24T22:08:29.118Z,65.00
2018-06-24T22:10:57.345Z,65.20
2018-06-24T22:13:25.534Z,65.30
2018-06-24T22:15:53.754Z,65.70
2018-06-24T22:18:21.970Z,66.80
2018-06-24T22:20:50.177Z,66.30
2018-06-24T22:23:18.625Z,66.90
2018-06-24T22:25:46.828Z,66.20
2018-06-24T22:28:15.017Z,66.80
2018-06-24T22:30:43.206Z,66.70
2018-06-24T22:33:11.414Z,66.70
2018-06-24T22:35:39.615Z,66.80
2018-06-24T22:38:07.825Z,67.00
2018-06-24T22:40:36.102Z,66.80
2018-06-24T22:43:04.315Z,66.70
2018-06-24T22:45:32.502Z,66.20
2018-06-24T22:48:00.722Z,66.40
2018-06-24T22:50:28.936Z,66.50
2018-06-24T22:52:57.142Z,66.20
2018-06-24T22:55:25.338Z,65.60
2018-06-24T22:57:53.544Z,65.90
2018-06-24T23:00:21.783Z,66.20
2018-06-24T23:02:50.014Z,66.60
2018-06-24T23:05:18.214Z,67.00
2018-06-24T23:07:46.698Z,67.20
2018-06-24T23:10:15.071Z,67.60
2018-06-24T23:12:43.605Z,67.90
2018-06-24T23:15:12.335Z,69.10
2018-06-24T23:17:40.843Z,70.90
2018-06-24T23:20:09.509Z,74.30
2018-06-24T23:22:37.791Z,77.80
2018-06-24T23:25:06.099Z,79.70
2018-06-24T23:27:34.291Z,77.50
2018-06-24T23:30:02.527Z,78.30
2018-06-24T23:32:30.726Z,79.30
2018-06-24T23:37:26.892Z,79.40
2018-06-24T23:39:55.147Z,79.30
2018-06-24T23:42:23.362Z,80.60
2018-06-24T23:44:51.568Z,82.10
2018-06-24T23:47:19.777Z,84.20
2018-06-24T23:52:16.287Z,90.80
2018-06-24T23:54:44.482Z,92.10
2018-06-24T23:57:12.683Z,92.30
2018-06-24T23:59:40.898Z,93.00
